Time;durP1;ratioP1;P1;durP2;ratioP2;P2;SDS_P1;SDS_P2;PMS_P1;PMS_P2;Temp;Humidity;BMP_temperature;BMP_pressure;BME280_temperature;BME280_humidity;BME280_pressure;Samples;Min_cycle;Max_cycle;Signal;HPM_P1;HPM_P2
2022/12/24 00:00:11;;;;;;;7.15;4.15;;;30.60;76.80;;;;;;5063552;28;20454;-84
2022/12/24 00:02:39;;;;;;;4.18;2.75;;;30.60;77.00;;;;;;5068993;28;20390;-86
2022/12/24 00:05:06;;;;;;;3.40;2.30;;;30.80;75.90;;;;;;5068529;28;20405;-87
2022/12/24 00:07:33;;;;;;;3.35;1.67;;;31.00;77.70;;;;;;5066060;28;20470;-83
2022/12/24 00:10:00;;;;;;;2.60;1.35;;;31.40;74.10;;;;;;5063474;28;20512;-84
2022/12/24 00:12:28;;;;;;;2.03;1.50;;;32.00;70.10;;;;;;5063670;28;20896;-86
2022/12/24 00:14:55;;;;;;;3.83;1.67;;;31.90;70.20;;;;;;5067023;28;20394;-87
2022/12/24 00:17:22;;;;;;;3.50;2.10;;;31.60;69.80;;;;;;5066993;28;20397;-88
2022/12/24 00:19:49;;;;;;;2.08;1.30;;;31.60;68.40;;;;;;5063175;28;20393;-84
2022/12/24 00:22:16;;;;;;;2.42;1.58;;;31.80;68.10;;;;;;5057011;28;20436;-85
2022/12/24 00:24:43;;;;;;;3.38;1.52;;;32.30;68.70;;;;;;5060404;28;20475;-86
2022/12/24 00:27:10;;;;;;;2.92;1.52;;;32.80;66.70;;;;;;5065666;28;20409;-89
2022/12/24 00:29:37;;;;;;;1.40;1.30;;;32.40;67.30;;;;;;5069771;28;20374;-86
2022/12/24 00:32:08;;;;;;;2.53;1.40;;;32.50;65.70;;;;;;5065359;28;20390;-84
2022/12/24 00:34:39;;;;;;;1.67;1.27;;;32.70;64.80;;;;;;5075431;28;20471;-87
2022/12/24 00:37:07;;;;;;;2.20;1.30;;;32.90;65.20;;;;;;5067955;28;20440;-89
2022/12/24 00:39:34;;;;;;;2.83;2.17;;;33.00;63.70;;;;;;5070899;28;20378;-86
2022/12/24 00:42:01;;;;;;;2.45;1.38;;;32.80;62.30;;;;;;5070473;28;20405;-84
2022/12/24 00:44:28;;;;;;;2.27;1.20;;;32.40;62.30;;;;;;5053354;28;20401;-84
2022/12/24 00:46:55;;;;;;;2.58;1.20;;;32.20;63.40;;;;;;5052451;28;20816;-84
2022/12/24 00:49:22;;;;;;;2.40;1.33;;;32.30;62.00;;;;;;5070366;28;20464;-84
2022/12/24 00:51:49;;;;;;;2.53;1.42;;;32.50;63.10;;;;;;5071111;28;20409;-82
2022/12/24 00:54:16;;;;;;;2.50;1.20;;;32.60;62.10;;;;;;5074374;28;20371;-83
2022/12/24 00:56:43;;;;;;;1.67;1.20;;;32.90;60.50;;;;;;5073782;28;20482;-81
2022/12/24 00:59:10;;;;;;;2.95;1.30;;;33.10;59.40;;;;;;5074773;28;20378;-84
2022/12/24 01:01:37;;;;;;;3.45;0.93;;;33.50;57.60;;;;;;5072916;28;20407;-85
2022/12/24 01:07:06;;;;;;;3.40;1.30;;;33.70;56.70;;;;;;5015615;28;20386;-83
2022/12/24 01:09:34;;;;;;;1.83;1.10;;;33.70;54.80;;;;;;5011031;28;20474;-85
2022/12/24 01:12:01;;;;;;;1.10;1.00;;;33.40;55.20;;;;;;5010907;28;20446;-85
2022/12/24 01:14:28;;;;;;;1.50;1.00;;;33.40;54.30;;;;;;5019302;28;20473;-84
2022/12/24 01:16:55;;;;;;;1.95;0.98;;;33.30;55.00;;;;;;5027398;28;20405;-88
2022/12/24 01:19:22;;;;;;;1.10;1.00;;;33.60;55.90;;;;;;5010759;28;20573;-86
2022/12/24 01:21:49;;;;;;;1.70;1.08;;;33.90;54.20;;;;;;5023033;28;20423;-85
2022/12/24 01:24:16;;;;;;;1.77;1.00;;;34.00;54.80;;;;;;5010513;28;20397;-83
2022/12/24 01:26:44;;;;;;;3.97;1.10;;;34.60;53.70;;;;;;5010570;28;20860;-88
2022/12/24 01:29:11;;;;;;;5.97;1.15;;;35.00;51.10;;;;;;5016252;28;20389;-85
2022/12/24 01:31:38;;;;;;;1.10;1.00;;;35.10;50.90;;;;;;5023312;28;20758;-82
2022/12/24 01:34:05;;;;;;;1.42;0.98;;;35.60;50.50;;;;;;4997464;28;20976;-82
2022/12/24 01:36:33;;;;;;;2.50;1.00;;;36.10;51.30;;;;;;5001070;28;20422;-84
2022/12/24 01:39:00;;;;;;;2.65;1.00;;;35.90;49.30;;;;;;5008298;28;20509;-82
2022/12/24 01:44:28;;;;;;;2.08;0.93;;;34.90;49.30;;;;;;5074838;28;20393;-83
2022/12/24 01:47:06;;;;;;;1.90;1.05;;;34.40;49.80;;;;;;5071236;28;20477;-83
2022/12/24 01:49:34;;;;;;;1.10;0.90;;;33.90;50.70;;;;;;5071989;28;20389;-84
2022/12/24 01:52:08;;;;;;;1.35;1.20;;;34.20;51.50;;;;;;5067398;28;20425;-78
2022/12/24 01:55:00;;;;;;;1.77;0.90;;;34.80;51.40;;;;;;5052000;28;20540;-82
2022/12/24 01:57:29;;;;;;;2.67;0.98;;;35.50;49.60;;;;;;5067696;28;20386;-87
2022/12/24 02:00:01;;;;;;;1.27;0.90;;;36.20;47.70;;;;;;5071678;28;20406;-84
2022/12/24 02:02:28;;;;;;;1.40;0.90;;;36.40;47.10;;;;;;5068035;28;20394;-84
2022/12/24 02:05:03;;;;;;;1.25;0.80;;;37.10;45.40;;;;;;5068104;28;20459;-80
2022/12/24 02:07:31;;;;;;;2.15;0.90;;;37.20;43.30;;;;;;5069109;28;20444;-82
2022/12/24 02:10:00;;;;;;;1.63;0.80;;;37.10;44.00;;;;;;5062151;28;20472;-82
2022/12/24 02:12:31;;;;;;;1.15;0.80;;;36.60;44.50;;;;;;5063157;28;20847;-86
2022/12/24 02:14:59;;;;;;;2.70;0.80;;;36.30;43.80;;;;;;5071104;28;20370;-85
2022/12/24 02:17:58;;;;;;;1.00;0.90;;;35.60;44.40;;;;;;5062744;28;20386;-83
2022/12/24 02:20:31;;;;;;;1.48;0.90;;;35.30;45.40;;;;;;5070483;28;20401;-82
2022/12/24 02:23:45;;;;;;;2.25;0.80;;;36.00;44.40;;;;;;5071674;28;20462;-82
2022/12/24 02:26:44;;;;;;;1.27;0.80;;;37.20;43.80;;;;;;5018887;28;20470;-81
2022/12/24 02:29:46;;;;;;;1.00;0.85;;;38.70;42.70;;;;;;5020534;28;20942;-82
2022/12/24 02:32:20;;;;;;;1.52;0.80;;;39.10;41.10;;;;;;4958570;28;20477;-82
2022/12/24 02:35:07;;;;;;;1.27;0.80;;;39.30;40.70;;;;;;4970251;28;20406;-82
2022/12/24 02:37:39;;;;;;;1.10;0.77;;;39.00;40.10;;;;;;4970199;28;20414;-80
2022/12/24 02:40:24;;;;;;;0.90;0.70;;;37.80;40.70;;;;;;4969741;28;20379;-80
2022/12/24 02:42:57;;;;;;;1.77;0.90;;;38.30;41.30;;;;;;4968246;28;20453;-81
2022/12/24 02:45:35;;;;;;;0.90;0.70;;;38.30;39.40;;;;;;4959598;28;20902;-82
2022/12/24 02:48:02;;;;;;;1.45;0.85;;;37.50;40.40;;;;;;4969726;28;20397;-82
2022/12/24 02:50:29;;;;;;;1.50;0.80;;;36.70;40.70;;;;;;4969740;28;20430;-81
2022/12/24 02:52:56;;;;;;;1.08;0.88;;;36.30;42.20;;;;;;4969576;28;20383;-80
2022/12/24 02:55:46;;;;;;;1.80;0.80;;;37.20;41.30;;;;;;4980617;28;20389;-82
2022/12/24 02:58:54;;;;;;;1.17;0.77;;;38.50;40.00;;;;;;4958119;28;20477;-81
2022/12/24 03:01:32;;;;;;;0.70;0.70;;;39.90;39.80;;;;;;4971202;28;20450;-82
2022/12/24 03:04:19;;;;;;;1.42;0.90;;;40.90;38.50;;;;;;5004421;28;20379;-82
2022/12/24 03:07:05;;;;;;;3.00;0.80;;;40.60;37.30;;;;;;5053934;28;20384;-82
2022/12/24 03:09:50;;;;;;;1.40;0.70;;;38.80;38.00;;;;;;5058511;28;20363;-81
2022/12/24 03:12:22;;;;;;;2.10;0.80;;;37.90;40.00;;;;;;5087152;28;20406;-82
2022/12/24 03:14:49;;;;;;;1.80;0.85;;;38.20;39.90;;;;;;5089595;28;20375;-83
2022/12/24 03:17:19;;;;;;;3.60;0.85;;;38.80;39.10;;;;;;5089955;28;20381;-82
2022/12/24 03:19:47;;;;;;;1.50;0.85;;;39.70;38.40;;;;;;5057593;28;20392;-82
2022/12/24 03:22:15;;;;;;;1.98;0.80;;;40.40;37.60;;;;;;5050188;28;20406;-81
2022/12/24 03:24:42;;;;;;;0.90;0.77;;;41.10;38.20;;;;;;5037233;28;20766;-85
2022/12/24 03:27:11;;;;;;;1.10;0.80;;;41.80;36.50;;;;;;5050232;28;20388;-83
2022/12/24 03:29:39;;;;;;;2.13;0.80;;;40.70;37.10;;;;;;5050534;28;20376;-84
2022/12/24 03:32:06;;;;;;;1.00;0.90;;;39.20;37.90;;;;;;5050670;28;20372;-83
2022/12/24 03:34:33;;;;;;;0.90;0.77;;;38.00;38.70;;;;;;5049940;28;20383;-84
2022/12/24 03:37:00;;;;;;;0.98;0.90;;;37.00;39.50;;;;;;5049930;28;20375;-82
2022/12/24 03:39:27;;;;;;;1.17;0.90;;;36.30;40.50;;;;;;5048916;28;20380;-83
2022/12/24 03:41:54;;;;;;;1.23;0.90;;;35.90;41.00;;;;;;5038122;28;20399;-83
2022/12/24 03:44:21;;;;;;;2.22;0.90;;;36.50;40.70;;;;;;5048552;28;20378;-82
2022/12/24 03:46:48;;;;;;;2.50;0.83;;;36.80;39.70;;;;;;5029571;28;20388;-84
2022/12/24 03:49:15;;;;;;;1.70;0.80;;;37.30;39.50;;;;;;5044126;28;20372;-84
2022/12/24 03:51:42;;;;;;;1.20;0.80;;;38.60;39.60;;;;;;5039281;28;20384;-82
2022/12/24 03:54:09;;;;;;;1.10;0.80;;;39.70;38.70;;;;;;5050496;28;20375;-82
2022/12/24 03:56:36;;;;;;;1.92;0.80;;;39.60;38.60;;;;;;5050424;28;20387;-82
2022/12/24 03:59:03;;;;;;;1.35;0.90;;;39.70;38.40;;;;;;5050874;28;20374;-81
2022/12/24 04:01:30;;;;;;;2.10;0.80;;;39.60;38.80;;;;;;5049241;28;20403;-82
2022/12/24 04:03:57;;;;;;;1.40;0.80;;;40.50;38.30;;;;;;5065140;28;20378;-85
2022/12/24 04:06:24;;;;;;;1.30;0.90;;;41.60;37.20;;;;;;5053801;28;20386;-83
2022/12/24 04:08:51;;;;;;;0.95;0.75;;;41.00;37.00;;;;;;5057066;28;20531;-89
2022/12/24 04:11:18;;;;;;;1.13;0.80;;;39.60;37.40;;;;;;5041037;28;20450;-83
2022/12/24 04:13:45;;;;;;;1.55;0.73;;;38.40;38.90;;;;;;5037386;28;20392;-76
2022/12/24 04:16:14;;;;;;;1.27;0.90;;;38.00;39.10;;;;;;5040291;28;20387;-84
2022/12/24 04:18:42;;;;;;;0.85;0.80;;;37.80;38.70;;;;;;5062018;28;20396;-82
2022/12/24 04:21:10;;;;;;;1.10;0.80;;;37.30;39.20;;;;;;5079335;28;20402;-77
2022/12/24 04:23:39;;;;;;;1.92;0.70;;;36.60;39.60;;;;;;5069057;28;20461;-91
2022/12/24 04:26:07;;;;;;;1.83;1.03;;;36.00;40.50;;;;;;5079696;28;20721;-78
2022/12/24 04:28:35;;;;;;;2.60;1.50;;;35.80;41.80;;;;;;5073775;28;20378;-85
2022/12/24 04:31:21;;;;;;;2.33;1.60;;;35.70;47.00;;;;;;5071398;28;20389;-82
2022/12/24 04:33:50;;;;;;;2.20;1.50;;;36.40;47.50;;;;;;5068910;28;20380;-84
2022/12/24 04:36:18;;;;;;;2.42;1.52;;;37.50;46.70;;;;;;5080679;28;20380;-82
2022/12/24 04:38:47;;;;;;;2.30;1.42;;;38.60;46.10;;;;;;5073083;28;20380;-80
2022/12/24 04:41:19;;;;;;;2.50;1.55;;;40.00;44.50;;;;;;5079913;28;20792;-82
2022/12/24 04:43:46;;;;;;;3.75;1.52;;;40.80;44.10;;;;;;5088788;28;20395;-83
2022/12/24 04:46:18;;;;;;;2.92;1.50;;;40.30;43.90;;;;;;5082351;28;20894;-83
2022/12/24 04:48:48;;;;;;;4.88;1.75;;;39.10;44.70;;;;;;5092125;28;20459;-82
2022/12/24 04:51:16;;;;;;;3.03;1.42;;;37.70;45.80;;;;;;5057490;28;20389;-80
2022/12/24 04:53:44;;;;;;;1.98;1.35;;;36.70;46.80;;;;;;5070406;28;20427;-81
2022/12/24 04:56:16;;;;;;;2.17;1.60;;;36.00;48.60;;;;;;5084028;28;20442;-80
2022/12/24 04:58:43;;;;;;;3.08;1.40;;;35.80;49.60;;;;;;5062012;28;20485;-83
2022/12/24 05:01:19;;;;;;;2.33;1.40;;;36.50;48.80;;;;;;5070575;28;20413;-83
2022/12/24 05:03:46;;;;;;;1.98;1.40;;;37.90;47.40;;;;;;5080331;28;20556;-81
2022/12/24 05:06:17;;;;;;;3.90;1.55;;;38.90;45.60;;;;;;5085572;28;20375;-82
2022/12/24 05:08:44;;;;;;;3.67;1.50;;;39.40;45.70;;;;;;5069742;28;20396;-85
2022/12/24 05:11:14;;;;;;;1.45;1.35;;;39.80;44.50;;;;;;5072629;28;20366;-82
2022/12/24 05:13:43;;;;;;;2.97;1.40;;;39.00;44.50;;;;;;5071143;28;20451;-82
2022/12/24 05:16:12;;;;;;;2.20;1.40;;;38.20;46.10;;;;;;5072913;28;20416;-82
2022/12/24 05:18:39;;;;;;;2.50;1.40;;;38.60;46.60;;;;;;5068890;28;20413;-84
2022/12/24 05:21:18;;;;;;;3.30;1.40;;;39.10;45.10;;;;;;5072508;28;20404;-84
2022/12/24 05:26:39;;;;;;;1.77;1.30;;;39.90;43.40;;;;;;5071579;28;20482;-83
2022/12/24 05:29:07;;;;;;;1.92;1.20;;;39.90;43.90;;;;;;5080358;28;20767;-83
2022/12/24 05:31:35;;;;;;;2.80;1.20;;;39.80;43.70;;;;;;5080177;28;20723;-89
2022/12/24 05:34:02;;;;;;;2.42;1.30;;;39.90;43.70;;;;;;5070937;28;20384;-86
2022/12/24 05:36:29;;;;;;;2.83;1.20;;;40.10;42.90;;;;;;5085629;28;20505;-85
2022/12/24 05:38:56;;;;;;;1.80;1.13;;;40.10;42.30;;;;;;5053019;28;20385;-82
2022/12/24 05:41:24;;;;;;;2.40;1.20;;;39.80;42.90;;;;;;5080882;28;20435;-84
2022/12/24 05:43:51;;;;;;;2.90;1.20;;;39.80;43.10;;;;;;5082097;28;20377;-85
2022/12/24 05:46:20;;;;;;;2.60;1.02;;;40.20;42.60;;;;;;5074652;28;20384;-83
2022/12/24 05:48:48;;;;;;;2.78;1.10;;;39.90;42.20;;;;;;5088181;28;20410;-86
2022/12/24 05:51:21;;;;;;;3.22;1.15;;;39.90;42.60;;;;;;5090394;28;20380;-84
2022/12/24 05:53:49;;;;;;;2.35;1.13;;;39.60;42.80;;;;;;5069003;28;20393;-85
2022/12/24 05:56:22;;;;;;;3.67;1.20;;;39.10;43.30;;;;;;5081165;28;20412;-84
2022/12/24 05:58:50;;;;;;;3.03;1.13;;;39.00;43.30;;;;;;5074751;28;20879;-83
2022/12/24 06:01:18;;;;;;;1.90;1.20;;;38.30;43.70;;;;;;5061819;28;20414;-85
2022/12/24 06:03:45;;;;;;;2.45;1.20;;;37.90;44.60;;;;;;5067894;28;20834;-85
2022/12/24 06:06:17;;;;;;;1.63;1.10;;;37.60;44.70;;;;;;5071699;28;20386;-84
2022/12/24 06:08:45;;;;;;;1.65;1.20;;;37.40;44.90;;;;;;5071110;28;20707;-84
2022/12/24 06:11:14;;;;;;;2.57;1.30;;;36.90;45.30;;;;;;5070074;28;20431;-84
2022/12/24 06:13:43;;;;;;;3.50;1.08;;;36.70;44.60;;;;;;5047764;28;20374;-84
2022/12/24 06:16:13;;;;;;;2.00;0.97;;;36.50;44.40;;;;;;5054909;28;20438;-84
2022/12/24 06:18:41;;;;;;;2.80;0.90;;;36.90;43.10;;;;;;5077153;28;20404;-83
2022/12/24 06:21:08;;;;;;;1.50;0.90;;;37.50;42.60;;;;;;5054071;28;20439;-85
2022/12/24 06:23:37;;;;;;;1.20;0.70;;;38.10;42.50;;;;;;5084157;28;20414;-82
2022/12/24 06:26:06;;;;;;;2.03;1.00;;;38.30;41.70;;;;;;5076181;28;20478;-82
2022/12/24 06:28:36;;;;;;;2.40;1.00;;;38.20;41.40;;;;;;5074839;28;20385;-84
2022/12/24 06:31:05;;;;;;;1.50;0.93;;;37.90;41.30;;;;;;5069955;28;20390;-85
2022/12/24 06:33:32;;;;;;;3.38;1.00;;;37.50;42.60;;;;;;5073332;28;20524;-85
2022/12/24 06:35:59;;;;;;;2.30;1.10;;;37.40;42.60;;;;;;5070222;28;20906;-84
2022/12/24 06:38:28;;;;;;;2.03;0.80;;;37.70;42.40;;;;;;5075517;28;20393;-85
2022/12/24 06:40:55;;;;;;;2.30;1.00;;;37.90;42.00;;;;;;5074516;28;20864;-83
2022/12/24 06:43:22;;;;;;;1.90;0.90;;;37.90;41.40;;;;;;5065228;28;20758;-83
2022/12/24 06:45:49;;;;;;;1.30;0.90;;;37.70;41.50;;;;;;5075931;28;20428;-84
2022/12/24 06:48:16;;;;;;;1.00;0.80;;;37.20;41.90;;;;;;5066500;28;20398;-82
2022/12/24 06:50:43;;;;;;;1.60;0.80;;;37.30;41.60;;;;;;5075253;28;20387;-85
2022/12/24 06:53:10;;;;;;;1.50;0.80;;;37.30;42.00;;;;;;5074754;28;20443;-84
2022/12/24 06:55:39;;;;;;;4.15;0.80;;;37.60;41.40;;;;;;5079989;28;20407;-88
2022/12/24 06:58:06;;;;;;;2.00;0.70;;;37.70;41.50;;;;;;5072377;28;20811;-84
2022/12/24 07:00:33;;;;;;;1.55;0.82;;;38.10;40.70;;;;;;5059817;28;20395;-89
2022/12/24 07:03:00;;;;;;;1.27;0.80;;;38.40;39.90;;;;;;5079190;28;20395;-88
2022/12/24 07:05:27;;;;;;;1.88;1.00;;;38.30;40.10;;;;;;5071921;28;20379;-83
2022/12/24 07:07:54;;;;;;;0.98;0.70;;;38.50;39.90;;;;;;5072293;28;20525;-83
2022/12/24 07:10:22;;;;;;;0.70;0.70;;;38.10;39.90;;;;;;5072699;28;20423;-86
2022/12/24 07:12:49;;;;;;;0.82;0.70;;;37.80;39.70;;;;;;5053120;28;20384;-86
2022/12/24 07:15:16;;;;;;;1.77;0.87;;;37.70;40.30;;;;;;5064984;28;20388;-84
2022/12/24 07:17:43;;;;;;;1.10;1.00;;;37.60;40.20;;;;;;5063952;28;20406;-87
2022/12/24 07:20:16;;;;;;;2.47;1.00;;;37.70;40.20;;;;;;5063919;28;20515;-85
2022/12/24 07:22:43;;;;;;;1.08;0.77;;;37.80;40.10;;;;;;5066779;28;20387;-87
2022/12/24 07:25:11;;;;;;;1.50;0.70;;;37.70;39.90;;;;;;5063744;28;20516;-85
2022/12/24 07:27:38;;;;;;;1.70;0.70;;;37.40;40.20;;;;;;5063060;28;20386;-87
2022/12/24 07:30:06;;;;;;;1.60;0.80;;;37.50;40.20;;;;;;5070790;28;20739;-84
2022/12/24 07:32:34;;;;;;;0.80;0.75;;;37.40;40.00;;;;;;5058268;28;20389;-89
2022/12/24 07:35:01;;;;;;;1.42;1.00;;;37.10;40.40;;;;;;5071737;28;20375;-85
2022/12/24 07:37:28;;;;;;;1.33;0.80;;;36.90;40.40;;;;;;5063779;28;20483;-86
2022/12/24 07:39:55;;;;;;;1.85;0.70;;;36.60;40.60;;;;;;5072818;28;20438;-83
2022/12/24 07:42:22;;;;;;;1.40;0.70;;;36.40;41.00;;;;;;5076022;28;20410;-85
2022/12/24 07:44:49;;;;;;;0.70;0.70;;;36.40;40.80;;;;;;5069843;28;20380;-86
2022/12/24 07:47:16;;;;;;;1.55;0.60;;;36.40;40.90;;;;;;5068243;28;20391;-84
2022/12/24 07:49:43;;;;;;;1.48;0.73;;;36.40;40.80;;;;;;5065429;28;20385;-86
2022/12/24 07:52:10;;;;;;;0.90;0.70;;;36.50;40.50;;;;;;5069093;28;20378;-86
2022/12/24 07:54:39;;;;;;;1.00;0.70;;;36.60;40.00;;;;;;5069896;28;20447;-84
2022/12/24 07:57:06;;;;;;;2.03;0.70;;;36.40;40.50;;;;;;5060313;28;20387;-84
2022/12/24 07:59:33;;;;;;;0.82;0.70;;;36.20;40.60;;;;;;5068030;28;20389;-86
2022/12/24 08:02:00;;;;;;;1.20;0.80;;;36.00;41.10;;;;;;5069737;28;20419;-84
2022/12/24 08:04:27;;;;;;;1.27;0.75;;;36.00;41.00;;;;;;5068756;28;20455;-85
2022/12/24 08:06:53;;;;;;;0.70;0.70;;;35.80;40.90;;;;;;5065184;28;20422;-89
2022/12/24 08:09:21;;;;;;;1.42;0.63;;;35.70;41.20;;;;;;5059006;28;20472;-85
2022/12/24 08:11:48;;;;;;;2.35;0.80;;;35.70;41.40;;;;;;5059159;28;20391;-81
2022/12/24 08:14:15;;;;;;;0.88;0.77;;;35.40;41.30;;;;;;5063137;28;20499;-85
2022/12/24 08:16:42;;;;;;;1.88;0.80;;;35.20;41.60;;;;;;5067566;28;20383;-88
2022/12/24 08:19:09;;;;;;;1.25;0.93;;;34.70;42.30;;;;;;5061940;28;20396;-82
2022/12/24 08:21:35;;;;;;;1.70;0.73;;;34.30;42.60;;;;;;5070623;28;20881;-82
2022/12/24 08:24:03;;;;;;;1.45;0.80;;;34.00;42.80;;;;;;5070348;28;20387;-86
2022/12/24 08:26:30;;;;;;;1.23;0.70;;;33.70;43.60;;;;;;5069609;28;20459;-83
2022/12/24 08:28:57;;;;;;;1.70;0.98;;;33.40;43.70;;;;;;5067541;28;20436;-80
2022/12/24 08:31:23;;;;;;;1.73;0.70;;;33.10;43.90;;;;;;5069582;28;20387;-83
2022/12/24 08:33:50;;;;;;;2.38;0.70;;;32.80;43.70;;;;;;5055584;28;20472;-84
2022/12/24 08:36:17;;;;;;;0.93;0.80;;;32.40;43.60;;;;;;5068926;28;20379;-85
2022/12/24 08:38:44;;;;;;;1.80;0.60;;;32.00;44.00;;;;;;5049786;28;20742;-90
2022/12/24 08:41:11;;;;;;;1.40;0.85;;;31.60;44.70;;;;;;5055940;28;20459;-87
2022/12/24 08:43:38;;;;;;;1.80;0.90;;;31.20;45.00;;;;;;5076539;28;20385;-85
2022/12/24 08:46:05;;;;;;;2.17;0.73;;;30.90;46.00;;;;;;5043497;28;20867;-87
2022/12/24 08:48:34;;;;;;;2.08;0.85;;;30.70;45.90;;;;;;5065052;28;20393;-83
2022/12/24 08:51:05;;;;;;;5.43;1.25;;;30.50;46.10;;;;;;5053685;28;20403;-84
2022/12/24 08:53:32;;;;;;;6.00;1.60;;;30.30;46.30;;;;;;5066095;28;20878;-84
2022/12/24 08:56:04;;;;;;;7.43;1.70;;;30.10;47.50;;;;;;5070209;28;20389;-84
2022/12/24 08:58:31;;;;;;;4.10;1.20;;;29.90;47.20;;;;;;5073379;28;20703;-87
2022/12/24 09:00:58;;;;;;;1.98;1.00;;;29.70;47.20;;;;;;5064755;28;20396;-83
2022/12/24 09:03:25;;;;;;;1.70;0.90;;;29.60;47.50;;;;;;5064972;28;20416;-86
2022/12/24 09:05:52;;;;;;;1.60;0.70;;;29.60;48.10;;;;;;5074884;28;20945;-84
2022/12/24 09:08:20;;;;;;;1.77;1.20;;;29.40;48.20;;;;;;5068495;28;20422;-84
2022/12/24 09:10:47;;;;;;;2.50;1.17;;;29.30;48.30;;;;;;5061873;28;20387;-88
2022/12/24 09:13:14;;;;;;;2.50;1.10;;;29.10;48.80;;;;;;5061640;28;20396;-86
2022/12/24 09:15:41;;;;;;;1.23;0.95;;;29.00;49.00;;;;;;5087167;28;20392;-88
2022/12/24 09:18:09;;;;;;;1.98;1.10;;;28.80;49.70;;;;;;5074784;28;20403;-88
2022/12/24 09:20:36;;;;;;;2.20;1.10;;;28.70;50.10;;;;;;5074447;28;20822;-88
2022/12/24 09:23:03;;;;;;;1.75;1.13;;;28.60;50.40;;;;;;5079652;28;20396;-88
2022/12/24 09:25:30;;;;;;;2.22;1.10;;;28.50;50.60;;;;;;5072077;28;20830;-83
2022/12/24 09:27:57;;;;;;;1.48;0.80;;;28.50;51.10;;;;;;5071786;28;20745;-85
2022/12/24 09:30:24;;;;;;;1.00;0.80;;;28.40;51.50;;;;;;5065688;28;20488;-87
2022/12/24 09:32:51;;;;;;;1.50;0.70;;;28.30;51.50;;;;;;5066264;28;20386;-84
2022/12/24 09:35:18;;;;;;;1.23;0.70;;;28.20;51.60;;;;;;5071520;28;20409;-86
2022/12/24 09:37:46;;;;;;;1.38;0.82;;;28.10;51.80;;;;;;5061366;28;20402;-86
2022/12/24 09:40:28;;;;;;;1.48;0.90;;;28.00;52.40;;;;;;5065291;28;20382;-85
2022/12/24 09:42:55;;;;;;;2.47;0.80;;;27.90;52.40;;;;;;5068632;28;20491;-86
2022/12/24 09:45:26;;;;;;;2.05;1.00;;;27.80;52.60;;;;;;5054490;28;20558;-85
2022/12/24 09:48:13;;;;;;;1.15;0.90;;;27.80;53.00;;;;;;5072391;28;20440;-84
2022/12/24 09:50:52;;;;;;;6.20;3.95;;;27.60;53.10;;;;;;5071403;28;20451;-86
2022/12/24 09:53:24;;;;;;;8.93;8.02;;;27.50;53.50;;;;;;5065194;28;20363;-85
2022/12/24 09:55:57;;;;;;;6.03;5.22;;;27.40;53.60;;;;;;5066822;28;20382;-87
2022/12/24 09:58:41;;;;;;;3.78;2.50;;;27.40;54.20;;;;;;5068939;28;20366;-87
2022/12/24 10:01:12;;;;;;;5.10;2.40;;;27.30;54.40;;;;;;5082348;28;20386;-86
2022/12/24 10:03:39;;;;;;;3.53;1.92;;;27.20;54.90;;;;;;5071840;28;20425;-86
2022/12/24 10:06:18;;;;;;;2.40;1.55;;;27.00;55.10;;;;;;5111747;22;20516;-86
2022/12/24 10:08:56;;;;;;;2.80;1.48;;;27.00;55.60;;;;;;5056782;28;20368;-85
2022/12/24 10:11:47;;;;;;;2.75;1.50;;;27.00;55.90;;;;;;5045230;28;20402;-86
2022/12/24 10:14:37;;;;;;;3.00;1.80;;;26.90;56.10;;;;;;5051812;28;20379;-87
2022/12/24 10:17:22;;;;;;;1.88;1.40;;;26.80;56.30;;;;;;5050789;28;20740;-85
2022/12/24 10:19:55;;;;;;;1.92;1.30;;;26.70;56.40;;;;;;5041492;28;20447;-85
2022/12/24 10:22:59;;;;;;;2.15;1.10;;;26.60;56.50;;;;;;5050426;28;20779;-84
2022/12/24 10:25:42;;;;;;;5.13;1.30;;;26.50;56.60;;;;;;5037954;28;20412;-86
2022/12/24 10:28:29;;;;;;;1.77;1.30;;;26.50;57.10;;;;;;5050770;28;20494;-87
2022/12/24 10:31:00;;;;;;;2.45;1.20;;;26.30;57.70;;;;;;5049320;28;20399;-85
2022/12/24 10:33:41;;;;;;;1.25;1.00;;;26.20;58.10;;;;;;5051251;28;20371;-86
2022/12/24 10:36:17;;;;;;;3.75;1.33;;;26.10;58.50;;;;;;5028291;28;20717;-86
2022/12/24 10:38:45;;;;;;;3.35;1.40;;;26.10;59.00;;;;;;5050980;28;20396;-89
2022/12/24 10:41:14;;;;;;;2.67;1.40;;;26.00;59.30;;;;;;5047952;28;20400;-85
2022/12/24 10:43:43;;;;;;;2.85;1.63;;;26.00;59.40;;;;;;5033105;28;20393;-87
2022/12/24 10:46:38;;;;;;;2.08;1.60;;;25.90;59.70;;;;;;5050823;28;20457;-84
2022/12/24 10:49:07;;;;;;;3.72;2.00;;;25.90;60.10;;;;;;5043879;28;20402;-87
2022/12/24 10:52:00;;;;;;;3.03;2.10;;;25.80;60.80;;;;;;5050424;28;20372;-84
2022/12/24 10:54:33;;;;;;;3.15;2.10;;;25.80;61.50;;;;;;5046475;28;20551;-87
2022/12/24 10:57:01;;;;;;;3.87;2.10;;;25.70;62.00;;;;;;5048465;28;20383;-89
2022/12/24 10:59:30;;;;;;;2.83;2.00;;;25.70;62.50;;;;;;5050465;28;20863;-89
2022/12/24 11:01:59;;;;;;;2.90;2.10;;;25.60;63.00;;;;;;5048799;28;20903;-88
2022/12/24 11:04:29;;;;;;;2.10;1.80;;;25.50;63.50;;;;;;5050128;28;20368;-88
2022/12/24 11:07:16;;;;;;;3.65;2.03;;;25.50;64.10;;;;;;5032036;28;20415;-88
2022/12/24 11:09:58;;;;;;;2.67;1.90;;;25.40;64.60;;;;;;5026218;28;20387;-91
2022/12/24 11:12:30;;;;;;;3.65;2.10;;;25.30;64.90;;;;;;5046302;28;20466;-87
2022/12/24 11:15:06;;;;;;;3.40;1.90;;;25.20;65.40;;;;;;5048833;28;20445;-91
2022/12/24 11:17:34;;;;;;;2.70;1.90;;;25.10;65.80;;;;;;5037556;28;20463;-85
2022/12/24 11:20:02;;;;;;;3.97;2.00;;;25.10;66.20;;;;;;5041141;28;20861;-85
2022/12/24 11:22:32;;;;;;;4.00;1.90;;;25.00;66.80;;;;;;5045242;28;20450;-86
2022/12/24 11:25:30;;;;;;;2.97;1.93;;;24.90;67.30;;;;;;5053144;28;20383;-87
2022/12/24 11:28:18;;;;;;;3.03;2.10;;;24.80;67.90;;;;;;4969224;28;21025;-83
2022/12/24 11:30:57;;;;;;;2.53;2.03;;;24.70;68.50;;;;;;4968579;28;20402;-84
2022/12/24 11:33:24;;;;;;;3.97;2.20;;;24.60;68.40;;;;;;4972331;28;20884;-85
2022/12/24 11:36:01;;;;;;;2.40;2.10;;;24.60;68.70;;;;;;4974947;28;20402;-85
2022/12/24 11:38:31;;;;;;;2.63;2.20;;;24.60;69.20;;;;;;4968719;28;20433;-89
2022/12/24 11:41:16;;;;;;;3.42;2.30;;;24.50;69.90;;;;;;4972283;28;20407;-85
2022/12/24 11:43:58;;;;;;;4.10;2.38;;;24.40;70.70;;;;;;4968568;28;20390;-86
2022/12/24 11:46:40;;;;;;;4.20;2.80;;;24.30;72.00;;;;;;4968298;28;20895;-84
2022/12/24 11:49:16;;;;;;;4.15;2.90;;;24.30;73.50;;;;;;4962329;28;20405;-87
2022/12/24 11:52:05;;;;;;;5.03;3.33;;;24.30;74.90;;;;;;4969242;28;20398;-88
2022/12/24 11:54:48;;;;;;;4.85;3.17;;;24.30;76.10;;;;;;4967864;28;20433;-88
2022/12/24 11:57:18;;;;;;;5.30;3.15;;;24.30;77.00;;;;;;4968094;28;20403;-87
2022/12/24 11:59:47;;;;;;;6.40;3.13;;;24.30;77.30;;;;;;4968274;28;20386;-84
2022/12/24 12:02:26;;;;;;;5.30;3.40;;;24.20;77.80;;;;;;4959280;28;20426;-85
2022/12/24 12:05:03;;;;;;;6.22;3.25;;;24.10;78.00;;;;;;5026887;28;20394;-85
2022/12/24 12:07:34;;;;;;;7.65;3.70;;;24.10;78.70;;;;;;5046658;28;20549;-85
2022/12/24 12:10:15;;;;;;;7.77;3.50;;;24.00;79.60;;;;;;5049792;28;21208;-85
2022/12/24 12:12:56;;;;;;;7.57;3.60;;;24.00;80.80;;;;;;5053539;28;20371;-86
2022/12/24 12:15:27;;;;;;;6.37;3.60;;;24.00;82.30;;;;;;5054691;28;20426;-87
2022/12/24 12:18:05;;;;;;;21.10;4.13;;;24.00;84.20;;;;;;5049192;28;20375;-87
2022/12/24 12:20:40;;;;;;;7.03;3.70;;;23.90;86.70;;;;;;5047029;28;20721;-87
2022/12/24 12:23:16;;;;;;;5.65;3.85;;;23.90;88.80;;;;;;5046087;28;20397;-85
2022/12/24 12:26:02;;;;;;;5.97;4.57;;;23.80;91.00;;;;;;5052282;28;20384;-84
2022/12/24 12:28:46;;;;;;;7.07;4.50;;;23.80;92.90;;;;;;5045811;28;20742;-85
2022/12/24 12:31:34;;;;;;;5.70;4.10;;;23.80;95.20;;;;;;5019985;28;20438;-83
2022/12/24 12:34:31;;;;;;;7.10;4.15;;;23.70;97.80;;;;;;5060228;28;20373;-83
2022/12/24 12:37:13;;;;;;;7.53;3.97;;;23.70;99.60;;;;;;5050304;28;20721;-87
2022/12/24 12:39:41;;;;;;;5.35;3.70;;;23.60;99.90;;;;;;5054919;28;20403;-87
2022/12/24 12:42:36;;;;;;;6.80;3.65;;;23.50;99.90;;;;;;5043768;28;20504;-88
2022/12/24 12:45:39;;;;;;;5.40;3.50;;;23.40;99.90;;;;;;5052173;28;20386;-87
2022/12/24 12:48:40;;;;;;;5.20;3.25;;;23.40;99.90;;;;;;5051921;28;20387;-86
2022/12/24 12:51:21;;;;;;;5.43;3.58;;;23.40;99.90;;;;;;5064339;28;20508;-86
2022/12/24 12:54:03;;;;;;;7.15;3.60;;;23.30;99.90;;;;;;5055627;28;20563;-85
2022/12/24 12:56:33;;;;;;;5.75;3.03;;;23.20;99.90;;;;;;5053118;28;20391;-86
2022/12/24 12:59:14;;;;;;;5.00;3.10;;;23.20;99.90;;;;;;5056784;28;20379;-87
2022/12/24 13:01:50;;;;;;;5.95;3.30;;;23.10;99.90;;;;;;5052901;28;20511;-86
2022/12/24 13:04:44;;;;;;;7.20;3.22;;;23.10;99.90;;;;;;5047702;28;20368;-84
2022/12/24 13:07:20;;;;;;;5.72;3.50;;;23.00;99.90;;;;;;5067921;28;20393;-83
2022/12/24 13:09:57;;;;;;;5.70;3.50;;;23.00;99.90;;;;;;5061218;28;20387;-83
2022/12/24 13:12:36;;;;;;;4.95;3.22;;;23.00;99.90;;;;;;5052890;28;20441;-86
2022/12/24 13:15:30;;;;;;;5.43;3.60;;;22.90;99.90;;;;;;5053142;28;20383;-85
2022/12/24 13:18:24;;;;;;;11.35;3.85;;;22.90;99.90;;;;;;5043297;28;20384;-84
2022/12/24 13:20:52;;;;;;;8.03;3.90;;;22.80;99.90;;;;;;5047881;28;20876;-83